windsock image

Welcome to Bigfield Strip.

anemometer image
     

 Help for dials.  
 
Local Met:

Wind:   
10 Min average:  
267 ° / 0.0 kts (0.0)
267° / 0.0

Temperature:  
10.4°C C
Dew Point:  
7.0°C C
QNH:  
Trend:  
1028.1 hPa mb
+20.6hPa/hr
BigField Strip. This image updates approximately every minute, it can have a two minute 
delay.  
 

Humidity:  
79 %
Sunrise:   06:08 UTC
Sunset:   18:16 UTC
Updated:  
  UTC
 
   More met info, trends, radar, history etc. available here   

LUTON Metar   EGGW 261750Z AUTO 32007KT 9999 OVC033 06/04 Q1024
 
  TAF   TAF EGGW 261702Z 2618/2718 30004KT 9999 FEW015 SCT025 PROB30 TEMPO 2618/2620 7000 BKN012 BECMG 2620/2623 6000 PROB40 TEMPO 2621/2705 3000 BR BECMG 2703/2706 19012KT BECMG 2707/2710 9999 PROB30 TEMPO 2709/2713 19018G30KT BECMG 2710/2713 -RADZ BKN005 TEMPO 2713/2718 21018G30KT 2000 RADZ BKN002 PROB30 TEMPO 2714/2718 1200 BR BKN001
 
BENSON Metar   EGUB 261650Z AUTO 32004KT 9999 // OVC033/// 06/04 Q1024
 
  TAF   sion="1.0" encoding="UTF-8"?> 56943954 18
 
Big Field view 1 icon   Big Field view 2 icon   Big Field view 3 icon   Chart AL3a in PDF icon   Chart AL3a in Word icon

WARNING:
This information is provided by the Airstrip unofficial weather station, DO NOT depend on the data provided here for any purpose.
This page is updated for latest Metars & TAF's every 15 minutes. Page designed for a minimum browser size of 1024x768.
© Copyright 2018 BigField Strip. This page auto generated 18:05 UTC - 26/01/2018   Contact Us
Valid HTML 4.01 Transitional     Windows uptime: 0 Days 0 Hours 25 Minutes 3 Seconds    WD started: 17:47:02 26/01/2018    Free memory: 2.11GB     Valid CSS!